createdAt,value
2023-02-08T00:00:11.021Z,103814.69
2023-02-08T00:02:38.518Z,103817.97
2023-02-08T00:05:05.515Z,103820.00
2023-02-08T00:07:32.040Z,103830.06
2023-02-08T00:09:58.509Z,103824.41
2023-02-08T00:12:24.999Z,103820.69
2023-02-08T00:14:51.491Z,103821.88
2023-02-08T00:17:18.051Z,103826.88
2023-02-08T00:19:44.533Z,103820.13
2023-02-08T00:22:11.015Z,103817.41
2023-02-08T00:24:37.502Z,103818.72
2023-02-08T00:27:04.005Z,103815.09
2023-02-08T00:29:30.460Z,103823.03
2023-02-08T00:31:56.946Z,103829.50
2023-02-08T00:34:23.424Z,103823.38
2023-02-08T00:36:49.869Z,103827.69
2023-02-08T00:39:16.326Z,103823.91
2023-02-08T00:41:42.782Z,103824.81
2023-02-08T00:44:09.271Z,103819.03
2023-02-08T00:46:35.722Z,103826.25
2023-02-08T00:49:02.270Z,103825.59
2023-02-08T00:51:28.770Z,103818.34
2023-02-08T00:53:55.285Z,103816.22
2023-02-08T00:56:21.844Z,103820.66
2023-02-08T00:58:48.453Z,103824.75
2023-02-08T01:01:15.095Z,103825.81
2023-02-08T01:03:42.463Z,103826.34
2023-02-08T01:06:11.723Z,103838.69
2023-02-08T01:08:38.209Z,103831.81
2023-02-08T01:11:10.448Z,103831.16
2023-02-08T01:13:38.063Z,103825.16
2023-02-08T01:16:14.028Z,103822.94
2023-02-08T01:18:42.275Z,103823.19
2023-02-08T01:21:12.468Z,103818.28
2023-02-08T01:23:39.788Z,103813.06
2023-02-08T01:26:07.543Z,103814.19
2023-02-08T01:28:34.715Z,103799.22
2023-02-08T01:31:08.272Z,103806.66
2023-02-08T01:33:35.571Z,103802.00
2023-02-08T01:36:02.133Z,103805.38
2023-02-08T01:38:28.704Z,103794.22
2023-02-08T01:40:55.339Z,103795.22
2023-02-08T01:43:33.008Z,103794.03
2023-02-08T01:45:59.796Z,103789.19
2023-02-08T01:48:30.744Z,103775.56
2023-02-08T01:51:08.587Z,103775.50
2023-02-08T01:53:35.936Z,103780.28
2023-02-08T01:56:07.194Z,103775.97
2023-02-08T01:58:37.343Z,103782.81
2023-02-08T02:01:04.483Z,103771.81
2023-02-08T02:03:31.020Z,103772.84
2023-02-08T02:06:12.002Z,103773.69
2023-02-08T02:08:40.410Z,103777.97
2023-02-08T02:11:07.138Z,103783.09
2023-02-08T02:13:33.991Z,103781.09
2023-02-08T02:16:00.417Z,103779.75
2023-02-08T02:18:30.238Z,103774.31
2023-02-08T02:21:31.337Z,103772.41
2023-02-08T02:24:10.110Z,103762.41
2023-02-08T02:27:10.762Z,103770.63
2023-02-08T02:29:53.907Z,103770.28
2023-02-08T02:32:48.575Z,103768.78
2023-02-08T02:35:42.473Z,103761.53
2023-02-08T02:38:25.635Z,103764.44
2023-02-08T02:41:43.295Z,103765.56
2023-02-08T02:44:37.838Z,103764.69
2023-02-08T02:47:16.809Z,103754.91
2023-02-08T02:49:50.734Z,103759.34
2023-02-08T02:52:41.222Z,103752.59
2023-02-08T02:55:11.775Z,103758.53
2023-02-08T02:57:39.096Z,103763.81
2023-02-08T03:00:10.794Z,103772.13
2023-02-08T03:02:37.387Z,103779.00
2023-02-08T03:05:06.690Z,103774.84
2023-02-08T03:07:48.090Z,103776.94
2023-02-08T03:10:29.776Z,103780.06
2023-02-08T03:13:20.297Z,103776.94
2023-02-08T03:16:15.575Z,103780.59
2023-02-08T03:19:01.735Z,103775.19
2023-02-08T03:21:37.332Z,103782.81
2023-02-08T03:24:36.898Z,103779.41
2023-02-08T03:27:10.610Z,103776.84
2023-02-08T03:29:46.278Z,103778.72
2023-02-08T03:32:26.403Z,103772.63
2023-02-08T03:35:06.409Z,103768.41
2023-02-08T03:37:41.314Z,103776.22
2023-02-08T03:40:14.402Z,103782.03
2023-02-08T03:42:41.222Z,103783.16
2023-02-08T03:45:12.671Z,103775.63
2023-02-08T03:47:41.024Z,103773.25
2023-02-08T03:50:10.198Z,103771.16
2023-02-08T03:52:37.431Z,103777.78
2023-02-08T03:55:08.279Z,103764.81
2023-02-08T03:57:48.166Z,103773.28
2023-02-08T04:00:16.586Z,103774.16
2023-02-08T04:02:55.526Z,103778.47
2023-02-08T04:05:22.774Z,103775.53
2023-02-08T04:07:49.274Z,103778.75
2023-02-08T04:10:15.915Z,103776.75
2023-02-08T04:12:43.436Z,103785.03
2023-02-08T04:15:10.166Z,103784.00
2023-02-08T04:17:36.606Z,103770.56
2023-02-08T04:20:03.219Z,103779.34
2023-02-08T04:22:29.657Z,103768.06
2023-02-08T04:24:56.618Z,103767.84
2023-02-08T04:27:23.078Z,103763.19
2023-02-08T04:29:49.548Z,103764.69
2023-02-08T04:32:16.011Z,103772.06
2023-02-08T04:34:42.462Z,103769.09
2023-02-08T04:37:09.469Z,103766.94
2023-02-08T04:39:35.913Z,103766.69
2023-02-08T04:42:03.411Z,103757.81
2023-02-08T04:44:32.770Z,103753.63
2023-02-08T04:47:00.323Z,103765.94
2023-02-08T04:49:26.782Z,103756.06
2023-02-08T04:51:53.264Z,103763.84
2023-02-08T04:54:19.757Z,103764.22
2023-02-08T04:56:46.248Z,103762.59
2023-02-08T04:59:12.746Z,103759.41
2023-02-08T05:01:39.347Z,103762.47
2023-02-08T05:04:05.879Z,103765.28
2023-02-08T05:06:32.352Z,103778.00
2023-02-08T05:08:58.936Z,103787.47
2023-02-08T05:11:25.732Z,103789.16
2023-02-08T05:13:52.816Z,103787.94
2023-02-08T05:16:19.337Z,103789.88
2023-02-08T05:18:45.898Z,103795.25
2023-02-08T05:21:12.387Z,103788.50
2023-02-08T05:23:38.915Z,103786.84
2023-02-08T05:26:09.625Z,103789.09
2023-02-08T05:28:36.711Z,103773.78
2023-02-08T05:31:15.761Z,103774.78
2023-02-08T05:33:42.335Z,103773.13
2023-02-08T05:36:09.157Z,103781.31
2023-02-08T05:38:35.741Z,103779.84
2023-02-08T05:41:02.313Z,103775.78
2023-02-08T05:43:28.761Z,103779.97
2023-02-08T05:45:55.218Z,103778.59
2023-02-08T05:48:21.694Z,103781.69
2023-02-08T05:50:48.156Z,103776.47
2023-02-08T05:53:14.828Z,103766.03
2023-02-08T05:55:45.008Z,103769.94
2023-02-08T05:58:12.318Z,103767.38
2023-02-08T06:00:39.120Z,103769.56
2023-02-08T06:03:06.232Z,103764.38
2023-02-08T06:05:33.370Z,103762.66
2023-02-08T06:07:59.888Z,103784.00
2023-02-08T06:10:26.620Z,103778.25
2023-02-08T06:12:53.118Z,103778.34
2023-02-08T06:15:19.572Z,103770.81
2023-02-08T06:17:50.761Z,103771.97
2023-02-08T06:20:17.428Z,103776.59
2023-02-08T06:22:44.166Z,103766.38
2023-02-08T06:25:10.629Z,103765.13
2023-02-08T06:27:37.098Z,103763.97
2023-02-08T06:30:04.182Z,103764.03
2023-02-08T06:32:30.725Z,103763.47
2023-02-08T06:34:57.242Z,103783.78
2023-02-08T06:37:23.772Z,103779.59
2023-02-08T06:39:50.260Z,103781.56
2023-02-08T06:42:16.725Z,103788.81
2023-02-08T06:44:54.116Z,103792.34
2023-02-08T06:47:25.710Z,103790.31
2023-02-08T06:49:52.704Z,103786.56
2023-02-08T06:52:19.814Z,103779.03
2023-02-08T06:54:46.316Z,103787.22
2023-02-08T06:57:13.026Z,103790.50
2023-02-08T06:59:40.197Z,103791.03
2023-02-08T07:02:11.401Z,103784.84
2023-02-08T07:04:37.981Z,103785.66
2023-02-08T07:07:04.445Z,103794.59
2023-02-08T07:09:34.260Z,103797.22
2023-02-08T07:12:04.934Z,103791.44
2023-02-08T07:14:33.497Z,103793.41
2023-02-08T07:17:03.604Z,103783.69
2023-02-08T07:19:30.096Z,103792.03
2023-02-08T07:21:57.605Z,103795.97
2023-02-08T07:24:24.206Z,103801.31
2023-02-08T07:26:50.705Z,103798.22
2023-02-08T07:29:17.203Z,103792.38
2023-02-08T07:31:43.667Z,103790.41
2023-02-08T07:34:10.175Z,103785.28
2023-02-08T07:36:36.628Z,103781.81
2023-02-08T07:39:03.428Z,103784.72
2023-02-08T07:41:29.920Z,103787.69
2023-02-08T07:43:56.387Z,103783.88
2023-02-08T07:46:23.034Z,103785.81
2023-02-08T07:48:50.061Z,103772.41
2023-02-08T07:51:16.513Z,103772.75
2023-02-08T07:53:43.053Z,103787.19
2023-02-08T07:56:10.466Z,103783.63
2023-02-08T07:58:37.485Z,103781.50
2023-02-08T08:01:16.153Z,103765.34
2023-02-08T08:03:48.684Z,103775.94
2023-02-08T08:06:15.251Z,103771.16
2023-02-08T08:08:42.421Z,103762.66
2023-02-08T08:11:08.870Z,103754.59
2023-02-08T08:13:35.328Z,103748.00
2023-02-08T08:16:01.823Z,103750.31
2023-02-08T08:18:28.344Z,103749.22
2023-02-08T08:20:54.797Z,103751.94
2023-02-08T08:23:21.989Z,103754.94
2023-02-08T08:25:48.507Z,103753.22
2023-02-08T08:28:15.137Z,103757.50
2023-02-08T08:30:45.505Z,103753.28
2023-02-08T08:33:14.156Z,103740.69
2023-02-08T08:35:41.025Z,103734.94
2023-02-08T08:38:07.480Z,103727.41
2023-02-08T08:40:33.972Z,103724.91
2023-02-08T08:43:00.463Z,103722.72
2023-02-08T08:45:27.009Z,103724.47
2023-02-08T08:47:53.553Z,103726.63
2023-02-08T08:50:20.041Z,103722.09
2023-02-08T08:52:46.555Z,103723.28
2023-02-08T08:55:13.032Z,103727.28
2023-02-08T08:57:39.515Z,103724.28
2023-02-08T09:00:06.399Z,103722.41
2023-02-08T09:02:32.860Z,103726.72
2023-02-08T09:05:00.401Z,103733.75
2023-02-08T09:07:26.984Z,103728.22
2023-02-08T09:09:53.452Z,103731.84
2023-02-08T09:12:20.296Z,103720.66
2023-02-08T09:14:46.781Z,103725.22
2023-02-08T09:17:13.353Z,103730.94
2023-02-08T09:19:39.824Z,103728.22
2023-02-08T09:22:07.394Z,103723.09
2023-02-08T09:24:34.740Z,103742.13
2023-02-08T09:27:01.354Z,103740.75
2023-02-08T09:29:32.819Z,103736.66
2023-02-08T09:31:59.654Z,103742.97
2023-02-08T09:34:26.211Z,103743.06
2023-02-08T09:36:52.671Z,103746.84
2023-02-08T09:39:21.880Z,103749.25
2023-02-08T09:42:13.044Z,103762.84
2023-02-08T09:44:56.470Z,103756.50
2023-02-08T09:47:30.415Z,103747.66
2023-02-08T09:50:24.991Z,103760.84
2023-02-08T09:52:52.906Z,103756.31
2023-02-08T09:55:42.281Z,103762.44
2023-02-08T09:58:29.394Z,103746.16
2023-02-08T10:00:56.339Z,103749.06
2023-02-08T10:03:31.667Z,103749.34
2023-02-08T10:05:58.295Z,103738.88
2023-02-08T10:08:34.511Z,103734.22
2023-02-08T10:11:19.828Z,103732.69
2023-02-08T10:13:55.462Z,103725.66
2023-02-08T10:16:37.164Z,103728.88
2023-02-08T10:19:22.128Z,103727.91
2023-02-08T10:22:04.531Z,103728.34
2023-02-08T10:24:57.339Z,103716.75
2023-02-08T10:27:31.132Z,103718.66
2023-02-08T10:30:19.626Z,103714.47
2023-02-08T10:33:18.949Z,103717.56
2023-02-08T10:35:47.694Z,103715.66
2023-02-08T10:38:20.403Z,103718.03
2023-02-08T10:40:51.782Z,103711.13
2023-02-08T10:43:24.420Z,103696.03
2023-02-08T10:46:28.857Z,103698.31
2023-02-08T10:49:16.704Z,103694.47
2023-02-08T10:51:43.240Z,103690.94
2023-02-08T10:54:13.944Z,103681.22
2023-02-08T10:56:47.240Z,103689.63
2023-02-08T10:59:21.078Z,103686.28
2023-02-08T11:01:49.344Z,103673.50
2023-02-08T11:04:17.551Z,103674.06
2023-02-08T11:06:45.391Z,103668.13
2023-02-08T11:09:29.538Z,103658.97
2023-02-08T11:11:58.529Z,103659.22
2023-02-08T11:14:49.098Z,103659.84
2023-02-08T11:17:28.271Z,103650.88
2023-02-08T11:19:55.233Z,103661.41
2023-02-08T11:22:23.505Z,103649.94
2023-02-08T11:25:08.667Z,103639.81
2023-02-08T11:27:39.056Z,103646.78
2023-02-08T11:30:14.711Z,103636.72
2023-02-08T11:32:42.381Z,103642.84
2023-02-08T11:35:20.657Z,103648.03
2023-02-08T11:37:58.463Z,103631.59
2023-02-08T11:40:29.467Z,103637.13
2023-02-08T11:42:56.047Z,103635.94
2023-02-08T11:45:25.191Z,103639.25
2023-02-08T11:47:52.248Z,103635.53
2023-02-08T11:50:32.080Z,103628.88
2023-02-08T11:53:01.151Z,103609.94
2023-02-08T11:55:30.592Z,103620.09
2023-02-08T11:58:12.286Z,103609.72
2023-02-08T12:00:40.505Z,103616.72
2023-02-08T12:03:19.747Z,103608.28
2023-02-08T12:06:11.507Z,103606.63
2023-02-08T12:08:43.555Z,103618.22
2023-02-08T12:11:22.219Z,103607.97
2023-02-08T12:13:54.826Z,103600.03
2023-02-08T12:16:43.198Z,103597.16
2023-02-08T12:19:38.641Z,103602.41
2023-02-08T12:22:17.385Z,103594.66
2023-02-08T12:25:06.485Z,103590.91
2023-02-08T12:27:51.276Z,103596.34
2023-02-08T12:30:34.051Z,103588.34
2023-02-08T12:33:03.505Z,103588.28
2023-02-08T12:35:41.722Z,103588.50
2023-02-08T12:38:50.268Z,103573.00
2023-02-08T12:41:31.642Z,103577.41
2023-02-08T12:44:24.355Z,103573.28
2023-02-08T12:47:02.980Z,103572.03
2023-02-08T12:49:39.999Z,103570.25
2023-02-08T12:52:44.326Z,103571.25
2023-02-08T12:55:19.026Z,103570.72
2023-02-08T12:57:47.634Z,103564.06
2023-02-08T13:00:18.911Z,103562.09
2023-02-08T13:02:57.702Z,103562.59
2023-02-08T13:05:28.408Z,103555.44
2023-02-08T13:08:13.480Z,103560.47
2023-02-08T13:10:41.661Z,103556.38
2023-02-08T13:13:22.226Z,103559.28
2023-02-08T13:16:09.317Z,103552.78
2023-02-08T13:18:40.323Z,103538.59
2023-02-08T13:21:08.622Z,103542.28
2023-02-08T13:23:52.092Z,103544.72
2023-02-08T13:26:32.739Z,103536.09
2023-02-08T13:29:01.831Z,103533.66
2023-02-08T13:31:36.096Z,103540.28
2023-02-08T13:34:08.302Z,103534.22
2023-02-08T13:36:36.813Z,103531.69
2023-02-08T13:39:05.889Z,103521.78
2023-02-08T13:41:33.509Z,103521.06
2023-02-08T13:44:08.535Z,103509.63
2023-02-08T13:46:48.168Z,103513.53
2023-02-08T13:49:39.422Z,103502.19
2023-02-08T13:52:08.282Z,103494.00
2023-02-08T13:54:34.761Z,103502.38
2023-02-08T13:57:01.570Z,103494.31
2023-02-08T13:59:35.463Z,103499.78
2023-02-08T14:02:19.010Z,103478.88
2023-02-08T14:04:47.610Z,103469.31
2023-02-08T14:07:24.340Z,103472.56
2023-02-08T14:09:53.733Z,103462.91
2023-02-08T14:12:34.668Z,103468.34
2023-02-08T14:15:16.459Z,103464.78
2023-02-08T14:17:45.423Z,103466.78
2023-02-08T14:20:19.634Z,103462.69
2023-02-08T14:22:58.426Z,103460.94
2023-02-08T14:25:28.041Z,103460.16
2023-02-08T14:27:59.540Z,103454.06
2023-02-08T14:30:31.781Z,103450.81
2023-02-08T14:33:04.313Z,103448.88
2023-02-08T14:35:32.238Z,103443.97
2023-02-08T14:38:20.562Z,103444.50
2023-02-08T14:40:51.291Z,103443.03
2023-02-08T14:43:20.834Z,103452.50
2023-02-08T14:45:49.793Z,103438.31
2023-02-08T14:48:47.291Z,103435.13
2023-02-08T14:51:25.891Z,103436.88
2023-02-08T14:53:54.693Z,103437.84
2023-02-08T14:56:26.488Z,103435.00
2023-02-08T14:58:56.043Z,103432.47
2023-02-08T15:01:53.621Z,103428.22
2023-02-08T15:04:20.862Z,103423.19
2023-02-08T15:06:53.798Z,103423.53
2023-02-08T15:09:24.505Z,103407.44
2023-02-08T15:12:01.067Z,103410.50
2023-02-08T15:14:28.740Z,103408.84
2023-02-08T15:16:56.134Z,103403.53
2023-02-08T15:19:48.923Z,103407.56
2023-02-08T15:22:29.269Z,103397.72
2023-02-08T15:25:02.054Z,103393.59
2023-02-08T15:27:33.529Z,103395.28
2023-02-08T15:30:00.795Z,103389.19
2023-02-08T15:32:28.968Z,103387.78
2023-02-08T15:34:58.462Z,103378.19
2023-02-08T15:37:25.398Z,103375.03
2023-02-08T15:39:56.717Z,103374.25
2023-02-08T15:42:26.168Z,103372.19
2023-02-08T15:44:53.009Z,103369.28
2023-02-08T15:47:34.516Z,103367.41
2023-02-08T15:50:02.840Z,103369.16
2023-02-08T15:52:32.398Z,103366.19
2023-02-08T15:54:58.929Z,103368.25
2023-02-08T15:57:48.473Z,103357.88
2023-02-08T16:00:20.461Z,103371.66
2023-02-08T16:03:02.290Z,103370.78
2023-02-08T16:05:31.591Z,103363.56
2023-02-08T16:07:58.501Z,103375.72
2023-02-08T16:10:27.969Z,103368.97
2023-02-08T16:13:00.177Z,103364.19
2023-02-08T16:15:33.894Z,103356.91
2023-02-08T16:18:00.417Z,103369.19
2023-02-08T16:20:33.995Z,103373.44
2023-02-08T16:23:01.901Z,103363.78
2023-02-08T16:25:42.418Z,103352.63
2023-02-08T16:28:41.401Z,103349.75
2023-02-08T16:31:08.168Z,103350.72
2023-02-08T16:33:37.301Z,103350.91
2023-02-08T16:36:03.934Z,103343.19
2023-02-08T16:38:33.966Z,103349.28
2023-02-08T16:41:13.179Z,103339.81
2023-02-08T16:43:44.524Z,103338.72
2023-02-08T16:46:11.115Z,103347.47
2023-02-08T16:48:45.742Z,103348.19
2023-02-08T16:51:31.197Z,103342.03
2023-02-08T16:54:02.957Z,103343.78
2023-02-08T16:56:29.473Z,103337.25
2023-02-08T16:58:55.966Z,103336.19
2023-02-08T17:01:24.363Z,103329.53
2023-02-08T17:03:52.922Z,103334.44
2023-02-08T17:06:34.761Z,103339.16
2023-02-08T17:09:02.867Z,103326.59
2023-02-08T17:11:30.165Z,103323.59
2023-02-08T17:13:58.354Z,103319.75
2023-02-08T17:16:27.537Z,103321.38
2023-02-08T17:18:54.452Z,103317.09
2023-02-08T17:21:21.397Z,103309.84
2023-02-08T17:23:48.029Z,103313.00
2023-02-08T17:26:32.433Z,103316.31
2023-02-08T17:28:59.313Z,103310.38
2023-02-08T17:31:27.385Z,103304.09
2023-02-08T17:33:53.926Z,103297.69
2023-02-08T17:36:20.398Z,103304.50
2023-02-08T17:38:47.115Z,103303.03
2023-02-08T17:41:16.013Z,103283.47
2023-02-08T17:43:42.601Z,103285.72
2023-02-08T17:46:11.004Z,103285.69
2023-02-08T17:48:37.630Z,103286.81
2023-02-08T17:51:16.267Z,103293.47
2023-02-08T17:53:43.856Z,103284.75
2023-02-08T17:56:13.335Z,103281.47
2023-02-08T17:58:40.711Z,103275.94
2023-02-08T18:01:08.209Z,103283.47
2023-02-08T18:03:34.949Z,103275.31
2023-02-08T18:06:01.510Z,103283.41
2023-02-08T18:08:28.466Z,103273.41
2023-02-08T18:10:54.899Z,103263.59
2023-02-08T18:13:21.455Z,103272.50
2023-02-08T18:15:48.318Z,103270.53
2023-02-08T18:18:15.618Z,103273.91
2023-02-08T18:20:45.835Z,103273.16
2023-02-08T18:23:13.338Z,103275.47
2023-02-08T18:25:41.305Z,103269.00
2023-02-08T18:28:08.072Z,103272.00
2023-02-08T18:30:34.551Z,103268.13
2023-02-08T18:33:02.151Z,103256.41
2023-02-08T18:35:28.959Z,103255.91
2023-02-08T18:37:55.451Z,103241.88
2023-02-08T18:40:21.911Z,103245.31
2023-02-08T18:42:48.350Z,103248.75
2023-02-08T18:45:14.846Z,103251.19
2023-02-08T18:47:41.439Z,103246.56
2023-02-08T18:50:09.217Z,103247.06
2023-02-08T18:52:35.710Z,103236.59
2023-02-08T18:55:02.235Z,103236.13
2023-02-08T18:57:28.771Z,103229.81
2023-02-08T18:59:56.162Z,103218.22
2023-02-08T19:02:23.687Z,103223.34
2023-02-08T19:04:50.187Z,103222.75
2023-02-08T19:07:16.705Z,103210.50
2023-02-08T19:09:44.071Z,103217.84
2023-02-08T19:12:15.728Z,103217.44
2023-02-08T19:14:43.341Z,103220.28
2023-02-08T19:17:10.525Z,103217.84
2023-02-08T19:19:38.988Z,103211.13
2023-02-08T19:22:05.422Z,103207.00
2023-02-08T19:24:31.988Z,103205.56
2023-02-08T19:26:58.492Z,103205.44
2023-02-08T19:29:25.196Z,103205.22
2023-02-08T19:31:51.747Z,103207.78
2023-02-08T19:34:18.866Z,103205.38
2023-02-08T19:36:49.479Z,103209.81
2023-02-08T19:39:18.951Z,103199.69
2023-02-08T19:41:45.944Z,103198.00
2023-02-08T19:44:15.185Z,103210.06
2023-02-08T19:46:45.380Z,103211.06
2023-02-08T19:49:13.794Z,103207.66
2023-02-08T19:51:41.380Z,103204.00
2023-02-08T19:54:13.472Z,103200.81
2023-02-08T19:56:40.477Z,103198.78
2023-02-08T19:59:08.679Z,103200.28
2023-02-08T20:01:35.548Z,103198.84
2023-02-08T20:04:03.306Z,103202.25
2023-02-08T20:06:33.336Z,103198.50
2023-02-08T20:09:01.944Z,103203.72
2023-02-08T20:11:32.615Z,103203.22
2023-02-08T20:14:00.329Z,103191.72
2023-02-08T20:16:30.457Z,103202.72
2023-02-08T20:18:58.564Z,103195.84
2023-02-08T20:21:25.361Z,103195.50
2023-02-08T20:23:52.278Z,103196.66
2023-02-08T20:26:21.412Z,103188.00
2023-02-08T20:28:55.398Z,103189.59
2023-02-08T20:31:30.206Z,103189.88
2023-02-08T20:33:59.777Z,103180.47
2023-02-08T20:36:28.760Z,103176.59
2023-02-08T20:38:57.019Z,103188.28
2023-02-08T20:41:24.875Z,103175.13
2023-02-08T20:43:52.666Z,103176.31
2023-02-08T20:46:25.724Z,103169.94
2023-02-08T20:48:53.599Z,103172.72
2023-02-08T20:51:21.644Z,103171.81
2023-02-08T20:53:49.303Z,103167.28
2023-02-08T20:56:22.020Z,103167.78
2023-02-08T20:58:48.779Z,103164.25
2023-02-08T21:01:34.720Z,103155.53
2023-02-08T21:04:01.904Z,103161.34
2023-02-08T21:06:33.752Z,103148.25
2023-02-08T21:09:03.697Z,103146.84
2023-02-08T21:11:31.456Z,103139.94
2023-02-08T21:13:58.299Z,103133.63
2023-02-08T21:16:25.467Z,103136.72
2023-02-08T21:18:52.316Z,103131.75
2023-02-08T21:21:19.340Z,103131.34
2023-02-08T21:23:46.435Z,103119.03
2023-02-08T21:26:15.798Z,103108.03
2023-02-08T21:28:43.758Z,103116.59
2023-02-08T21:31:14.843Z,103117.69
2023-02-08T21:33:42.738Z,103114.72
2023-02-08T21:36:13.712Z,103114.63
2023-02-08T21:38:40.339Z,103099.50
2023-02-08T21:41:20.210Z,103106.69
2023-02-08T21:43:47.450Z,103096.56
2023-02-08T21:46:14.041Z,103113.75
2023-02-08T21:48:59.576Z,103108.03
2023-02-08T21:51:44.667Z,103108.06
2023-02-08T21:54:38.457Z,103098.97
2023-02-08T21:57:06.437Z,103100.22
2023-02-08T21:59:37.442Z,103103.81
2023-02-08T22:02:10.899Z,103096.59
2023-02-08T22:04:56.165Z,103093.00
2023-02-08T22:07:23.581Z,103089.84
2023-02-08T22:09:50.322Z,103082.16
2023-02-08T22:12:20.897Z,103080.88
2023-02-08T22:14:50.386Z,103074.16
2023-02-08T22:17:17.603Z,103063.28
2023-02-08T22:19:44.253Z,103059.19
2023-02-08T22:22:11.985Z,103070.34
2023-02-08T22:24:39.136Z,103069.47
2023-02-08T22:27:06.925Z,103065.00
2023-02-08T22:29:35.081Z,103058.09
2023-02-08T22:32:01.751Z,103056.13
2023-02-08T22:34:28.427Z,103047.03
2023-02-08T22:36:54.997Z,103056.09
2023-02-08T22:39:22.991Z,103058.66
2023-02-08T22:41:49.866Z,103052.34
2023-02-08T22:44:16.511Z,103051.72
2023-02-08T22:46:43.076Z,103053.75
2023-02-08T22:49:09.573Z,103054.03
2023-02-08T22:51:36.102Z,103050.91
2023-02-08T22:54:14.783Z,103037.03
2023-02-08T22:56:42.149Z,103044.09
2023-02-08T22:59:08.641Z,103037.66
2023-02-08T23:01:35.176Z,103036.00
2023-02-08T23:04:01.995Z,103043.41
2023-02-08T23:06:28.545Z,103040.16
2023-02-08T23:09:01.987Z,103046.44
2023-02-08T23:11:28.472Z,103029.16
2023-02-08T23:13:54.979Z,103032.91
2023-02-08T23:16:21.521Z,103033.13
2023-02-08T23:18:48.020Z,103032.31
2023-02-08T23:21:17.362Z,103034.66
2023-02-08T23:23:45.970Z,103039.59
2023-02-08T23:26:15.692Z,103015.78
2023-02-08T23:28:42.472Z,103032.25
2023-02-08T23:31:11.446Z,103025.44
2023-02-08T23:33:39.343Z,103020.94
2023-02-08T23:36:07.161Z,103012.78
2023-02-08T23:38:34.443Z,103016.84
2023-02-08T23:41:08.595Z,103016.38
2023-02-08T23:43:35.576Z,103009.88
2023-02-08T23:46:26.629Z,103009.28
2023-02-08T23:48:53.153Z,103005.59
2023-02-08T23:51:21.274Z,103008.41
2023-02-08T23:53:48.209Z,103010.97
2023-02-08T23:56:19.630Z,102994.84
2023-02-08T23:58:48.397Z,102997.84
